Language selection

My Weather Profile Weather Topics  | 

Roes Welcome - northern half: Past 24 Hour Conditions

 

Kuujjuarapik Airport

05:00 AM EST 01 February 2023
Disclaimer

This table is a summary of hourly weather conditions for the past 24 hours.
Please note that these observations might not always be representative of weather conditions over their associated marine area.

Date / Time
(EST)
Wind(knots) Conditions Visibility(km) Pressure(kPa) Air tempC) Relative humidity(%) Dew pointC) Wind Chill
01 February 2023
5:00 S 5 Clear 16 101.8 -33 70 -37 -42
4:00 SSE 5 Clear 16 101.7 -33 71 -36 -42
3:00 S 6 Clear 16 101.7 -32 71 -36 -43
2:00 S 5 Clear 16 101.7 -32 70 -36 -41
1:00 WSW 9 gust 15 Clear 16 101.6 -29 69 -33 -41
0:00 W 11 gust 16 Clear 16 101.6 -29 68 -33 -42
31 January 2023
23:00 W 12 gust 18 Clear 15 101.6 -29 67 -33 -42
22:00 W 12 gust 17 Clear 15 101.6 -29 68 -33 -43
21:00 W 12 gust 18 Clear 11 101.5 -29 68 -33 -42
20:00 W 13 gust 19 Haze 6 101.5 -29 65 -33 -42
19:00 W 14 gust 20 Haze 6 101.4 -28 65 -32 -42
18:00 WSW 14 gust 22 Light Snow 3 101.3 -26 71 -30 -40
17:00 W 16 gust 22 Light Snow 1 101.2 -26 71 -29 -40
16:00 W 15 gust 21 Heavy Snow 0.2 101.1 -24 76 -27 -38
15:00 SW 11 gust 20 Light Snow 2 100.9 -23 68 -28 -35
14:00 SW 9 gust 20 Light Snow 2 100.9 -23 69 -27 -33
13:00 SSW 14 gust 24 Haze 2 100.9 -23 66 -28 -36
12:00 S 14 gust 22 Haze 4 100.8 -23 68 -28 -36
11:00 S 11 gust 21 Haze 6 100.9 -25 69 -29 -36
10:00 S 15 gust 23 Light Snow 3 100.9 -25 71 -29 -39
9:00 SSE 14 gust 22 Haze 10 101.0 -27 70 -31 -41
8:00 SSE 16 gust 24 Light Snow 4 101.0 -27 71 -31 -42
7:00 SSE 11 gust 20 Light Snow 6 101.1 -28 70 -32 -41
6:00 SSE 14 gust 21 Haze 10 101.1 -28 71 -32 -43
5:00 SE 11 gust 18 Clear 16 101.2 -30 70 -33 -43

Zoom-in to make a selection

Map of Hudson - Hudson Bay marine weather areas Arviat Airport Baker Lake Airport Chesterfield Inlet Airport Coral Harbour Airport Rankin Inlet Airport Sanikiluaq Airport Whale Cove Airport Kinngait (Cape Dorset Airport) Iqaluit Airport Wager Bay Kimmirut Airport Churchill Airport Fort Severn Airport Peawanuck Airport Moosonee Airport Eastmain Airport La Grande Rivière Airport Waskaganish Airport Wemindji Airport Akulivik Airport Inukjuak Airport Ivujivik Airport Kuujjuarapik Airport Puvirnituq Airport Umiujaq Airport Aupaluk Airport Kangiqsujuaq Airport Kangirsuk Airport Kangiqsualujjuaq Airport Kuujjuaq Airport Quaqtaq Airport Salluit Airport Tasiujaq Airport Cape Kakkiviak
Legend:
buoy Buoy
land station Land Station

Hudson - Hudson Bay Area

Another Region

What we are doing

Date modified: